• Join FlightAware (Why Join?)
  • Login
  • US Flag 
09:43PM EDT


 

Airport Tracker/Info


-or-


 

Live Flight TrackerFlight Track Log ✈ EJA982 ✈ 22-Apr-2013 ✈ KAPC - KRNO

Flight Track Log - Related Links

Times and Time Zones

All times are in EDT time to prevent confusion due to time zone crossing. See the EJA982 flight status page for this flight to view local times or setup timezone preferences in your user account.

Time Position Orientation Groundspeed Altitude Reporting Facility
EDT Latitude Longitude Course Direction KTS MPH feet Rate Location/Type
12:02PM 38.1858 -122.3042 96° East 206 237 1,900  Level Oakland Center
12:03PM 38.1978 -122.3714 283° West 230 265 5,000 3,120 Climbing Oakland Center
12:04PM 38.2714 -122.3639 North 256 295 8,400 2,940 Climbing Oakland Center
12:05PM 38.3256 -122.2928 46° Northeast 288 331 11,100 2,400 Climbing Oakland Center
12:06PM 38.3414 -122.1647 81° East 339 390 13,300 2,220 Climbing Oakland Center
12:07PM 38.4701 -122.1274 96° East  Level FlightAware Approximate
12:07PM 38.3647 -122.0286 78° East 381 438 15,700  Level Oakland Center
12:08PM 38.3878 -121.8911 78° East 394 453 16,900 540 Climbing Oakland Center
12:09PM 38.4122 -121.7444 78° East 413 475 16,900 60 Level Oakland Center
12:10PM 38.4333 -121.6167 78° East 451 519 17,000 60 Climbing Northern Cal TRACON
12:11PM 38.5000 -121.4833 57° Northeast 442 509 17,000 -60 Level Northern Cal TRACON
12:12PM 38.6167 -121.3283 46° Northeast 444 511 16,900  Descending Oakland Center
12:13PM 38.6942 -121.2319 44° Northeast 448 516 17,000  Climbing Oakland Center
12:14PM 38.7819 -121.1192 45° Northeast 446 513 17,000  Level Oakland Center
12:15PM 38.8683 -121.0067 45° Northeast 442 509 17,000  Level Oakland Center
12:16PM 38.9725 -120.8714 45° Northeast 442 509 17,000  Level Oakland Center
12:17PM 39.0586 -120.7586 45° Northeast 441 507 17,000  Level Oakland Center
12:18PM 39.1453 -120.6458 45° Northeast 442 509 17,000  Level Oakland Center
12:19PM 39.2311 -120.5319 46° Northeast 441 507 17,000 -120 Level Oakland Center
12:21PM 39.3158 -120.4189 46° Northeast 438 504 16,800 -360 Descending Oakland Center
12:22PM 39.3992 -120.3092 45° Northeast 430 495 16,300 -600 Descending Oakland Center
12:23PM 39.4761 -120.1972 48° Northeast 419 482 15,700 -1,080 Descending Oakland Center
12:24PM 39.5506 -120.0914 48° Northeast 360 414 14,200 -1,800 Descending Oakland Center
12:25PM 39.6042 -120.0103 49° Northeast 304 350 12,100 -1,680 Descending Oakland Center
12:26PM 39.6558 -119.9331 49° Northeast 289 333 10,900 -1,200 Descending Oakland Center
12:27PM 39.6831 -119.8600 64° Northeast 250 288 9,700 -1,380 Descending Oakland Center
12:28PM 39.6725 -119.7794 100° East 235 270 8,100 -1,200 Descending Oakland Center
12:29PM 39.6003 -119.7833 182° South 248 285 7,300 -1,320 Descending Oakland Center
12:29PM 39.6000 -119.7667 91° East 177 204 6,400 -1,500 Descending Northern Cal TRACON
12:30PM 39.5500 -119.7667 180° South 160 184 5,400 -1,020 Descending Northern Cal TRACON
12:32PM 39.4991 -119.7681 180° South  Level Estimated
12:39PM 39.4991 -119.7681 180° South  Level Estimated